sensor_id;sensor_type;location;lat;lon;timestamp;P1;durP1;ratioP1;P2;durP2;ratioP2
3841;SDS011;1936;47.074;15.336;2023-02-28T00:00:07;4.70;;;4.20;;
3841;SDS011;1936;47.074;15.336;2023-02-28T00:02:13;4.35;;;3.95;;
3841;SDS011;1936;47.074;15.336;2023-02-28T00:04:19;4.40;;;3.88;;
3841;SDS011;1936;47.074;15.336;2023-02-28T00:06:24;7.47;;;5.00;;
3841;SDS011;1936;47.074;15.336;2023-02-28T00:08:27;5.75;;;4.72;;
3841;SDS011;1936;47.074;15.336;2023-02-28T00:10:31;4.88;;;4.40;;
3841;SDS011;1936;47.074;15.336;2023-02-28T00:12:34;5.93;;;4.97;;
3841;SDS011;1936;47.074;15.336;2023-02-28T00:14:38;4.28;;;3.88;;
3841;SDS011;1936;47.074;15.336;2023-02-28T00:16:42;5.65;;;4.07;;
3841;SDS011;1936;47.074;15.336;2023-02-28T00:18:45;4.50;;;4.10;;
3841;SDS011;1936;47.074;15.336;2023-02-28T00:20:50;7.57;;;4.55;;
3841;SDS011;1936;47.074;15.336;2023-02-28T00:22:55;4.75;;;4.30;;
3841;SDS011;1936;47.074;15.336;2023-02-28T00:24:58;4.78;;;4.25;;
3841;SDS011;1936;47.074;15.336;2023-02-28T00:27:02;4.45;;;4.05;;
3841;SDS011;1936;47.074;15.336;2023-02-28T00:29:05;5.95;;;4.18;;
3841;SDS011;1936;47.074;15.336;2023-02-28T00:31:09;5.70;;;3.42;;
3841;SDS011;1936;47.074;15.336;2023-02-28T00:33:12;5.55;;;4.75;;
3841;SDS011;1936;47.074;15.336;2023-02-28T00:35:16;5.63;;;4.95;;
3841;SDS011;1936;47.074;15.336;2023-02-28T00:37:20;4.90;;;4.40;;
3841;SDS011;1936;47.074;15.336;2023-02-28T00:39:25;4.40;;;4.00;;
3841;SDS011;1936;47.074;15.336;2023-02-28T00:41:28;4.70;;;3.60;;
3841;SDS011;1936;47.074;15.336;2023-02-28T00:43:32;5.65;;;4.03;;
3841;SDS011;1936;47.074;15.336;2023-02-28T00:45:36;4.20;;;3.80;;
3841;SDS011;1936;47.074;15.336;2023-02-28T00:47:40;4.03;;;3.70;;
3841;SDS011;1936;47.074;15.336;2023-02-28T00:49:43;4.25;;;3.85;;
3841;SDS011;1936;47.074;15.336;2023-02-28T00:51:47;4.05;;;3.72;;
3841;SDS011;1936;47.074;15.336;2023-02-28T00:53:50;5.28;;;3.58;;
3841;SDS011;1936;47.074;15.336;2023-02-28T00:55:55;4.47;;;4.00;;
3841;SDS011;1936;47.074;15.336;2023-02-28T00:57:59;4.25;;;3.63;;
3841;SDS011;1936;47.074;15.336;2023-02-28T01:00:03;4.55;;;4.15;;
3841;SDS011;1936;47.074;15.336;2023-02-28T01:02:08;5.03;;;4.15;;
3841;SDS011;1936;47.074;15.336;2023-02-28T01:04:12;8.25;;;4.10;;
3841;SDS011;1936;47.074;15.336;2023-02-28T01:06:15;4.78;;;4.10;;
3841;SDS011;1936;47.074;15.336;2023-02-28T01:08:19;4.68;;;4.00;;
3841;SDS011;1936;47.074;15.336;2023-02-28T01:10:22;5.82;;;3.97;;
3841;SDS011;1936;47.074;15.336;2023-02-28T01:12:28;4.03;;;3.60;;
3841;SDS011;1936;47.074;15.336;2023-02-28T01:14:32;5.63;;;4.20;;
3841;SDS011;1936;47.074;15.336;2023-02-28T01:16:36;4.82;;;4.15;;
3841;SDS011;1936;47.074;15.336;2023-02-28T01:18:39;5.20;;;4.78;;
3841;SDS011;1936;47.074;15.336;2023-02-28T01:20:42;5.65;;;4.35;;
3841;SDS011;1936;47.074;15.336;2023-02-28T01:22:47;5.00;;;4.05;;
3841;SDS011;1936;47.074;15.336;2023-02-28T01:24:51;5.25;;;4.05;;
3841;SDS011;1936;47.074;15.336;2023-02-28T01:26:54;4.40;;;3.22;;
3841;SDS011;1936;47.074;15.336;2023-02-28T01:28:59;6.97;;;4.20;;
3841;SDS011;1936;47.074;15.336;2023-02-28T01:31:02;5.15;;;4.22;;
3841;SDS011;1936;47.074;15.336;2023-02-28T01:33:07;3.83;;;3.45;;
3841;SDS011;1936;47.074;15.336;2023-02-28T01:35:10;4.45;;;4.03;;
3841;SDS011;1936;47.074;15.336;2023-02-28T01:37:13;4.57;;;4.18;;
3841;SDS011;1936;47.074;15.336;2023-02-28T01:39:17;6.15;;;4.63;;
3841;SDS011;1936;47.074;15.336;2023-02-28T01:41:21;5.80;;;3.65;;
3841;SDS011;1936;47.074;15.336;2023-02-28T01:43:26;7.07;;;4.65;;
3841;SDS011;1936;47.074;15.336;2023-02-28T01:45:32;4.38;;;3.90;;
3841;SDS011;1936;47.074;15.336;2023-02-28T01:47:39;4.50;;;4.10;;
3841;SDS011;1936;47.074;15.336;2023-02-28T01:49:45;6.80;;;5.20;;
3841;SDS011;1936;47.074;15.336;2023-02-28T01:51:49;5.45;;;3.75;;
3841;SDS011;1936;47.074;15.336;2023-02-28T01:53:58;5.15;;;4.15;;
3841;SDS011;1936;47.074;15.336;2023-02-28T01:56:06;4.38;;;3.97;;
3841;SDS011;1936;47.074;15.336;2023-02-28T01:58:11;4.03;;;3.60;;
3841;SDS011;1936;47.074;15.336;2023-02-28T02:00:16;4.22;;;3.65;;
3841;SDS011;1936;47.074;15.336;2023-02-28T02:02:24;4.35;;;3.50;;
3841;SDS011;1936;47.074;15.336;2023-02-28T02:04:31;4.13;;;3.72;;
3841;SDS011;1936;47.074;15.336;2023-02-28T02:06:41;5.38;;;3.60;;
3841;SDS011;1936;47.074;15.336;2023-02-28T02:08:47;5.05;;;4.55;;
3841;SDS011;1936;47.074;15.336;2023-02-28T02:10:50;4.00;;;3.60;;
3841;SDS011;1936;47.074;15.336;2023-02-28T02:15:26;5.30;;;4.20;;
3841;SDS011;1936;47.074;15.336;2023-02-28T02:17:42;4.00;;;3.70;;
3841;SDS011;1936;47.074;15.336;2023-02-28T02:20:00;4.22;;;3.92;;
3841;SDS011;1936;47.074;15.336;2023-02-28T02:22:27;6.38;;;5.00;;
3841;SDS011;1936;47.074;15.336;2023-02-28T02:24:47;4.18;;;3.70;;
3841;SDS011;1936;47.074;15.336;2023-02-28T02:27:20;5.50;;;4.15;;
3841;SDS011;1936;47.074;15.336;2023-02-28T02:29:36;4.75;;;4.35;;
3841;SDS011;1936;47.074;15.336;2023-02-28T02:34:30;5.18;;;4.18;;
3841;SDS011;1936;47.074;15.336;2023-02-28T02:36:45;4.80;;;3.72;;
3841;SDS011;1936;47.074;15.336;2023-02-28T02:38:55;4.60;;;4.13;;
3841;SDS011;1936;47.074;15.336;2023-02-28T02:41:06;4.15;;;3.53;;
3841;SDS011;1936;47.074;15.336;2023-02-28T02:43:17;5.15;;;4.70;;
3841;SDS011;1936;47.074;15.336;2023-02-28T02:45:24;5.30;;;3.80;;
3841;SDS011;1936;47.074;15.336;2023-02-28T02:47:37;4.28;;;3.88;;
3841;SDS011;1936;47.074;15.336;2023-02-28T02:49:45;4.25;;;3.67;;
3841;SDS011;1936;47.074;15.336;2023-02-28T02:51:52;6.63;;;4.07;;
3841;SDS011;1936;47.074;15.336;2023-02-28T02:53:58;3.60;;;3.22;;
3841;SDS011;1936;47.074;15.336;2023-02-28T02:56:07;4.20;;;3.50;;
3841;SDS011;1936;47.074;15.336;2023-02-28T02:58:13;4.50;;;3.35;;
3841;SDS011;1936;47.074;15.336;2023-02-28T03:00:20;4.90;;;4.40;;
3841;SDS011;1936;47.074;15.336;2023-02-28T03:02:28;4.70;;;4.30;;
3841;SDS011;1936;47.074;15.336;2023-02-28T03:04:38;4.40;;;4.10;;
3841;SDS011;1936;47.074;15.336;2023-02-28T03:06:46;5.28;;;4.60;;
3841;SDS011;1936;47.074;15.336;2023-02-28T03:08:50;5.10;;;4.07;;
3841;SDS011;1936;47.074;15.336;2023-02-28T03:10:55;6.88;;;4.18;;
3841;SDS011;1936;47.074;15.336;2023-02-28T03:15:33;6.15;;;4.03;;
3841;SDS011;1936;47.074;15.336;2023-02-28T03:17:52;4.38;;;3.97;;
3841;SDS011;1936;47.074;15.336;2023-02-28T03:20:08;4.80;;;4.38;;
3841;SDS011;1936;47.074;15.336;2023-02-28T03:22:24;4.55;;;4.05;;
3841;SDS011;1936;47.074;15.336;2023-02-28T03:24:53;4.60;;;4.07;;
3841;SDS011;1936;47.074;15.336;2023-02-28T03:27:05;4.60;;;3.92;;
3841;SDS011;1936;47.074;15.336;2023-02-28T03:29:13;5.18;;;4.00;;
3841;SDS011;1936;47.074;15.336;2023-02-28T03:31:21;5.82;;;4.20;;
3841;SDS011;1936;47.074;15.336;2023-02-28T03:33:31;6.05;;;5.10;;
3841;SDS011;1936;47.074;15.336;2023-02-28T03:35:39;4.38;;;3.97;;
3841;SDS011;1936;47.074;15.336;2023-02-28T03:37:48;5.00;;;4.50;;
3841;SDS011;1936;47.074;15.336;2023-02-28T03:39:56;4.40;;;4.10;;
3841;SDS011;1936;47.074;15.336;2023-02-28T03:42:04;8.63;;;4.38;;
3841;SDS011;1936;47.074;15.336;2023-02-28T03:44:13;4.63;;;4.00;;
3841;SDS011;1936;47.074;15.336;2023-02-28T03:46:21;7.13;;;4.32;;
3841;SDS011;1936;47.074;15.336;2023-02-28T03:48:30;4.45;;;4.03;;
3841;SDS011;1936;47.074;15.336;2023-02-28T03:50:38;4.78;;;4.13;;
3841;SDS011;1936;47.074;15.336;2023-02-28T03:52:44;5.47;;;4.47;;
3841;SDS011;1936;47.074;15.336;2023-02-28T03:54:54;4.28;;;3.88;;
3841;SDS011;1936;47.074;15.336;2023-02-28T03:57:03;5.65;;;4.57;;
3841;SDS011;1936;47.074;15.336;2023-02-28T03:59:13;4.15;;;3.85;;
3841;SDS011;1936;47.074;15.336;2023-02-28T04:01:19;5.90;;;4.30;;
3841;SDS011;1936;47.074;15.336;2023-02-28T04:03:26;6.90;;;3.88;;
3841;SDS011;1936;47.074;15.336;2023-02-28T04:05:29;5.80;;;4.50;;
3841;SDS011;1936;47.074;15.336;2023-02-28T04:07:34;4.85;;;4.45;;
3841;SDS011;1936;47.074;15.336;2023-02-28T04:09:39;4.18;;;3.67;;
3841;SDS011;1936;47.074;15.336;2023-02-28T04:11:44;4.68;;;4.28;;
3841;SDS011;1936;47.074;15.336;2023-02-28T04:13:52;4.47;;;4.10;;
3841;SDS011;1936;47.074;15.336;2023-02-28T04:15:56;4.63;;;4.22;;
3841;SDS011;1936;47.074;15.336;2023-02-28T04:17:59;4.32;;;3.65;;
3841;SDS011;1936;47.074;15.336;2023-02-28T04:20:03;4.13;;;3.83;;
3841;SDS011;1936;47.074;15.336;2023-02-28T04:22:10;4.63;;;4.22;;
3841;SDS011;1936;47.074;15.336;2023-02-28T04:24:15;6.47;;;4.28;;
3841;SDS011;1936;47.074;15.336;2023-02-28T04:26:22;4.88;;;4.38;;
3841;SDS011;1936;47.074;15.336;2023-02-28T04:28:25;5.28;;;4.35;;
3841;SDS011;1936;47.074;15.336;2023-02-28T04:30:29;4.93;;;4.45;;
3841;SDS011;1936;47.074;15.336;2023-02-28T04:32:33;4.80;;;4.32;;
3841;SDS011;1936;47.074;15.336;2023-02-28T04:34:37;7.05;;;4.25;;
3841;SDS011;1936;47.074;15.336;2023-02-28T04:36:41;4.82;;;4.38;;
3841;SDS011;1936;47.074;15.336;2023-02-28T04:38:45;4.32;;;3.95;;
3841;SDS011;1936;47.074;15.336;2023-02-28T04:40:49;3.67;;;3.38;;
3841;SDS011;1936;47.074;15.336;2023-02-28T04:42:54;4.25;;;3.80;;
3841;SDS011;1936;47.074;15.336;2023-02-28T04:44:57;9.40;;;4.85;;
3841;SDS011;1936;47.074;15.336;2023-02-28T04:47:00;6.45;;;4.45;;
3841;SDS011;1936;47.074;15.336;2023-02-28T04:49:04;5.50;;;4.30;;
3841;SDS011;1936;47.074;15.336;2023-02-28T04:51:08;3.97;;;3.60;;
3841;SDS011;1936;47.074;15.336;2023-02-28T04:53:12;4.63;;;4.22;;
3841;SDS011;1936;47.074;15.336;2023-02-28T04:55:16;6.03;;;4.35;;
3841;SDS011;1936;47.074;15.336;2023-02-28T04:57:19;4.20;;;3.80;;
3841;SDS011;1936;47.074;15.336;2023-02-28T04:59:24;5.30;;;4.80;;
3841;SDS011;1936;47.074;15.336;2023-02-28T05:01:28;5.13;;;4.63;;
3841;SDS011;1936;47.074;15.336;2023-02-28T05:03:33;4.40;;;4.00;;
3841;SDS011;1936;47.074;15.336;2023-02-28T05:05:37;4.35;;;3.80;;
3841;SDS011;1936;47.074;15.336;2023-02-28T05:07:40;5.05;;;3.88;;
3841;SDS011;1936;47.074;15.336;2023-02-28T05:09:43;4.38;;;3.90;;
3841;SDS011;1936;47.074;15.336;2023-02-28T05:11:47;4.10;;;3.75;;
3841;SDS011;1936;47.074;15.336;2023-02-28T05:13:51;5.07;;;3.92;;
3841;SDS011;1936;47.074;15.336;2023-02-28T05:15:56;4.72;;;4.32;;
3841;SDS011;1936;47.074;15.336;2023-02-28T05:18:00;11.55;;;6.53;;
3841;SDS011;1936;47.074;15.336;2023-02-28T05:20:04;19.20;;;11.90;;
3841;SDS011;1936;47.074;15.336;2023-02-28T05:22:15;15.50;;;9.05;;
3841;SDS011;1936;47.074;15.336;2023-02-28T05:24:19;10.55;;;7.60;;
3841;SDS011;1936;47.074;15.336;2023-02-28T05:26:25;6.15;;;5.10;;
3841;SDS011;1936;47.074;15.336;2023-02-28T05:28:30;9.68;;;6.45;;
3841;SDS011;1936;47.074;15.336;2023-02-28T05:30:33;4.88;;;4.40;;
3841;SDS011;1936;47.074;15.336;2023-02-28T05:32:38;5.97;;;5.35;;
3841;SDS011;1936;47.074;15.336;2023-02-28T05:34:44;5.75;;;4.95;;
3841;SDS011;1936;47.074;15.336;2023-02-28T05:36:47;5.57;;;5.05;;
3841;SDS011;1936;47.074;15.336;2023-02-28T05:38:51;8.70;;;5.20;;
3841;SDS011;1936;47.074;15.336;2023-02-28T05:40:54;10.98;;;5.35;;
3841;SDS011;1936;47.074;15.336;2023-02-28T05:42:58;6.20;;;5.60;;
3841;SDS011;1936;47.074;15.336;2023-02-28T05:45:02;6.55;;;5.05;;
3841;SDS011;1936;47.074;15.336;2023-02-28T05:47:06;12.73;;;5.93;;
3841;SDS011;1936;47.074;15.336;2023-02-28T05:49:12;6.18;;;5.50;;
3841;SDS011;1936;47.074;15.336;2023-02-28T05:51:15;9.30;;;5.75;;
3841;SDS011;1936;47.074;15.336;2023-02-28T05:53:19;7.18;;;6.00;;
3841;SDS011;1936;47.074;15.336;2023-02-28T05:55:23;5.85;;;5.10;;
3841;SDS011;1936;47.074;15.336;2023-02-28T05:57:27;7.47;;;5.70;;
3841;SDS011;1936;47.074;15.336;2023-02-28T05:59:30;7.30;;;4.97;;
3841;SDS011;1936;47.074;15.336;2023-02-28T06:01:35;10.07;;;6.43;;
3841;SDS011;1936;47.074;15.336;2023-02-28T06:03:39;6.18;;;5.45;;
3841;SDS011;1936;47.074;15.336;2023-02-28T06:05:45;6.05;;;4.75;;
3841;SDS011;1936;47.074;15.336;2023-02-28T06:07:48;10.38;;;4.47;;
3841;SDS011;1936;47.074;15.336;2023-02-28T06:09:51;7.38;;;5.60;;
3841;SDS011;1936;47.074;15.336;2023-02-28T06:11:57;5.70;;;4.53;;
3841;SDS011;1936;47.074;15.336;2023-02-28T06:14:00;6.40;;;5.00;;
3841;SDS011;1936;47.074;15.336;2023-02-28T06:16:05;6.63;;;5.07;;
3841;SDS011;1936;47.074;15.336;2023-02-28T06:18:08;5.82;;;4.78;;
3841;SDS011;1936;47.074;15.336;2023-02-28T06:20:12;7.03;;;5.15;;
3841;SDS011;1936;47.074;15.336;2023-02-28T06:22:17;8.73;;;6.22;;
3841;SDS011;1936;47.074;15.336;2023-02-28T06:24:20;6.68;;;5.90;;
3841;SDS011;1936;47.074;15.336;2023-02-28T06:26:25;6.25;;;5.45;;
3841;SDS011;1936;47.074;15.336;2023-02-28T06:28:28;5.90;;;5.38;;
3841;SDS011;1936;47.074;15.336;2023-02-28T06:30:32;6.40;;;5.80;;
3841;SDS011;1936;47.074;15.336;2023-02-28T06:32:35;7.65;;;5.85;;
3841;SDS011;1936;47.074;15.336;2023-02-28T06:34:39;9.63;;;6.53;;
3841;SDS011;1936;47.074;15.336;2023-02-28T06:36:42;8.10;;;6.00;;
3841;SDS011;1936;47.074;15.336;2023-02-28T06:38:47;6.68;;;5.90;;
3841;SDS011;1936;47.074;15.336;2023-02-28T06:40:56;6.63;;;6.00;;
3841;SDS011;1936;47.074;15.336;2023-02-28T06:43:00;11.02;;;6.30;;
3841;SDS011;1936;47.074;15.336;2023-02-28T06:45:05;7.95;;;6.05;;
3841;SDS011;1936;47.074;15.336;2023-02-28T06:47:11;7.32;;;6.43;;
3841;SDS011;1936;47.074;15.336;2023-02-28T06:49:14;10.05;;;6.70;;
3841;SDS011;1936;47.074;15.336;2023-02-28T06:51:19;9.05;;;5.88;;
3841;SDS011;1936;47.074;15.336;2023-02-28T06:53:23;6.60;;;5.65;;
3841;SDS011;1936;47.074;15.336;2023-02-28T06:55:28;7.68;;;6.45;;
3841;SDS011;1936;47.074;15.336;2023-02-28T06:57:32;7.07;;;5.82;;
3841;SDS011;1936;47.074;15.336;2023-02-28T06:59:36;6.85;;;6.15;;
3841;SDS011;1936;47.074;15.336;2023-02-28T07:01:40;7.25;;;6.45;;
3841;SDS011;1936;47.074;15.336;2023-02-28T07:03:43;10.85;;;6.25;;
3841;SDS011;1936;47.074;15.336;2023-02-28T07:05:47;8.48;;;6.70;;
3841;SDS011;1936;47.074;15.336;2023-02-28T07:07:50;10.82;;;6.63;;
3841;SDS011;1936;47.074;15.336;2023-02-28T07:09:54;7.57;;;6.75;;
3841;SDS011;1936;47.074;15.336;2023-02-28T07:11:59;10.45;;;7.65;;
3841;SDS011;1936;47.074;15.336;2023-02-28T07:14:02;8.02;;;7.07;;
3841;SDS011;1936;47.074;15.336;2023-02-28T07:16:08;12.88;;;7.35;;
3841;SDS011;1936;47.074;15.336;2023-02-28T07:18:13;10.82;;;7.28;;
3841;SDS011;1936;47.074;15.336;2023-02-28T07:20:16;10.23;;;7.10;;
3841;SDS011;1936;47.074;15.336;2023-02-28T07:22:20;10.13;;;7.47;;
3841;SDS011;1936;47.074;15.336;2023-02-28T07:24:24;8.00;;;7.07;;
3841;SDS011;1936;47.074;15.336;2023-02-28T07:26:29;8.55;;;6.95;;
3841;SDS011;1936;47.074;15.336;2023-02-28T07:28:37;8.00;;;6.68;;
3841;SDS011;1936;47.074;15.336;2023-02-28T07:30:40;9.98;;;6.32;;
3841;SDS011;1936;47.074;15.336;2023-02-28T07:32:44;9.20;;;7.90;;
3841;SDS011;1936;47.074;15.336;2023-02-28T07:34:48;8.07;;;6.53;;
3841;SDS011;1936;47.074;15.336;2023-02-28T07:36:52;14.93;;;7.60;;
3841;SDS011;1936;47.074;15.336;2023-02-28T07:38:56;9.38;;;7.63;;
3841;SDS011;1936;47.074;15.336;2023-02-28T07:41:02;9.02;;;7.70;;
3841;SDS011;1936;47.074;15.336;2023-02-28T07:43:06;10.90;;;7.93;;
3841;SDS011;1936;47.074;15.336;2023-02-28T07:45:11;14.23;;;8.50;;
3841;SDS011;1936;47.074;15.336;2023-02-28T07:47:15;9.68;;;7.38;;
3841;SDS011;1936;47.074;15.336;2023-02-28T07:49:19;10.73;;;7.07;;
3841;SDS011;1936;47.074;15.336;2023-02-28T07:51:22;8.85;;;7.70;;
3841;SDS011;1936;47.074;15.336;2023-02-28T07:53:26;12.88;;;7.60;;
3841;SDS011;1936;47.074;15.336;2023-02-28T07:55:29;11.20;;;7.00;;
3841;SDS011;1936;47.074;15.336;2023-02-28T07:57:33;8.40;;;7.50;;
3841;SDS011;1936;47.074;15.336;2023-02-28T07:59:36;8.88;;;7.72;;
3841;SDS011;1936;47.074;15.336;2023-02-28T08:01:42;12.73;;;7.55;;
3841;SDS011;1936;47.074;15.336;2023-02-28T08:03:46;9.05;;;6.90;;
3841;SDS011;1936;47.074;15.336;2023-02-28T08:05:49;11.30;;;7.90;;
3841;SDS011;1936;47.074;15.336;2023-02-28T08:07:54;11.38;;;8.65;;
3841;SDS011;1936;47.074;15.336;2023-02-28T08:09:57;9.10;;;7.70;;
3841;SDS011;1936;47.074;15.336;2023-02-28T08:12:00;8.70;;;7.15;;
3841;SDS011;1936;47.074;15.336;2023-02-28T08:14:04;9.40;;;7.20;;
3841;SDS011;1936;47.074;15.336;2023-02-28T08:16:08;13.45;;;8.98;;
3841;SDS011;1936;47.074;15.336;2023-02-28T08:18:13;11.45;;;7.40;;
3841;SDS011;1936;47.074;15.336;2023-02-28T08:20:16;9.80;;;7.55;;
3841;SDS011;1936;47.074;15.336;2023-02-28T08:22:20;12.27;;;9.73;;
3841;SDS011;1936;47.074;15.336;2023-02-28T08:24:24;8.73;;;7.70;;
3841;SDS011;1936;47.074;15.336;2023-02-28T08:26:27;10.00;;;8.27;;
3841;SDS011;1936;47.074;15.336;2023-02-28T08:28:31;11.10;;;8.57;;
3841;SDS011;1936;47.074;15.336;2023-02-28T08:30:35;9.43;;;8.40;;
3841;SDS011;1936;47.074;15.336;2023-02-28T08:32:38;11.75;;;8.77;;
3841;SDS011;1936;47.074;15.336;2023-02-28T08:34:44;8.38;;;7.50;;
3841;SDS011;1936;47.074;15.336;2023-02-28T08:36:48;10.02;;;7.82;;
3841;SDS011;1936;47.074;15.336;2023-02-28T08:38:52;9.45;;;8.45;;
3841;SDS011;1936;47.074;15.336;2023-02-28T08:40:58;10.40;;;8.48;;
3841;SDS011;1936;47.074;15.336;2023-02-28T08:43:02;23.15;;;9.05;;
3841;SDS011;1936;47.074;15.336;2023-02-28T08:45:06;10.75;;;9.02;;
3841;SDS011;1936;47.074;15.336;2023-02-28T08:47:10;13.02;;;9.82;;
3841;SDS011;1936;47.074;15.336;2023-02-28T08:49:13;10.70;;;8.27;;
3841;SDS011;1936;47.074;15.336;2023-02-28T08:51:18;10.45;;;9.02;;
3841;SDS011;1936;47.074;15.336;2023-02-28T08:53:28;9.80;;;8.13;;
3841;SDS011;1936;47.074;15.336;2023-02-28T08:55:32;8.93;;;7.60;;
3841;SDS011;1936;47.074;15.336;2023-02-28T08:57:36;15.18;;;10.43;;
3841;SDS011;1936;47.074;15.336;2023-02-28T08:59:39;9.73;;;8.70;;
3841;SDS011;1936;47.074;15.336;2023-02-28T09:01:43;7.95;;;6.57;;
3841;SDS011;1936;47.074;15.336;2023-02-28T09:03:47;8.32;;;7.15;;
3841;SDS011;1936;47.074;15.336;2023-02-28T09:05:52;10.77;;;8.30;;
3841;SDS011;1936;47.074;15.336;2023-02-28T09:07:58;10.55;;;8.70;;
3841;SDS011;1936;47.074;15.336;2023-02-28T09:10:02;11.65;;;7.95;;
3841;SDS011;1936;47.074;15.336;2023-02-28T09:12:06;16.40;;;9.32;;
3841;SDS011;1936;47.074;15.336;2023-02-28T09:14:10;10.88;;;9.40;;
3841;SDS011;1936;47.074;15.336;2023-02-28T09:16:14;13.18;;;9.35;;
3841;SDS011;1936;47.074;15.336;2023-02-28T09:18:18;10.15;;;8.98;;
3841;SDS011;1936;47.074;15.336;2023-02-28T09:20:23;10.35;;;7.72;;
3841;SDS011;1936;47.074;15.336;2023-02-28T09:22:26;10.98;;;8.48;;
3841;SDS011;1936;47.074;15.336;2023-02-28T09:24:31;14.45;;;9.25;;
3841;SDS011;1936;47.074;15.336;2023-02-28T09:26:34;10.93;;;8.40;;
3841;SDS011;1936;47.074;15.336;2023-02-28T09:28:52;14.13;;;9.35;;
3841;SDS011;1936;47.074;15.336;2023-02-28T09:30:56;8.50;;;7.57;;
3841;SDS011;1936;47.074;15.336;2023-02-28T09:33:00;10.35;;;8.40;;
3841;SDS011;1936;47.074;15.336;2023-02-28T09:35:04;11.27;;;8.75;;
3841;SDS011;1936;47.074;15.336;2023-02-28T09:37:08;13.40;;;8.30;;
3841;SDS011;1936;47.074;15.336;2023-02-28T09:39:12;9.00;;;8.10;;
3841;SDS011;1936;47.074;15.336;2023-02-28T09:41:19;10.52;;;8.52;;
3841;SDS011;1936;47.074;15.336;2023-02-28T09:43:25;11.52;;;9.02;;
3841;SDS011;1936;47.074;15.336;2023-02-28T09:45:33;10.45;;;8.43;;
3841;SDS011;1936;47.074;15.336;2023-02-28T09:47:39;9.65;;;8.00;;
3841;SDS011;1936;47.074;15.336;2023-02-28T09:49:47;11.27;;;8.50;;
3841;SDS011;1936;47.074;15.336;2023-02-28T09:51:52;10.88;;;8.60;;
3841;SDS011;1936;47.074;15.336;2023-02-28T09:54:01;10.50;;;9.05;;
3841;SDS011;1936;47.074;15.336;2023-02-28T09:56:06;11.63;;;9.30;;
3841;SDS011;1936;47.074;15.336;2023-02-28T09:58:15;13.65;;;9.88;;
3841;SDS011;1936;47.074;15.336;2023-02-28T10:00:24;13.07;;;9.48;;
3841;SDS011;1936;47.074;15.336;2023-02-28T10:02:41;10.73;;;9.63;;
3841;SDS011;1936;47.074;15.336;2023-02-28T10:04:54;11.52;;;8.85;;
3841;SDS011;1936;47.074;15.336;2023-02-28T10:07:01;9.73;;;8.73;;
3841;SDS011;1936;47.074;15.336;2023-02-28T10:09:10;13.20;;;9.95;;
3841;SDS011;1936;47.074;15.336;2023-02-28T10:11:18;8.60;;;7.25;;
3841;SDS011;1936;47.074;15.336;2023-02-28T10:13:26;12.27;;;9.55;;
3841;SDS011;1936;47.074;15.336;2023-02-28T10:15:35;10.85;;;8.93;;
3841;SDS011;1936;47.074;15.336;2023-02-28T10:17:40;8.65;;;7.53;;
3841;SDS011;1936;47.074;15.336;2023-02-28T10:20:06;12.43;;;9.07;;
3841;SDS011;1936;47.074;15.336;2023-02-28T10:22:15;10.65;;;9.15;;
3841;SDS011;1936;47.074;15.336;2023-02-28T10:24:26;11.65;;;9.60;;
3841;SDS011;1936;47.074;15.336;2023-02-28T10:26:33;10.55;;;8.15;;
3841;SDS011;1936;47.074;15.336;2023-02-28T10:28:37;12.27;;;8.50;;
3841;SDS011;1936;47.074;15.336;2023-02-28T10:30:42;14.00;;;9.85;;
3841;SDS011;1936;47.074;15.336;2023-02-28T10:32:49;10.60;;;9.50;;
3841;SDS011;1936;47.074;15.336;2023-02-28T10:34:55;11.73;;;9.35;;
3841;SDS011;1936;47.074;15.336;2023-02-28T10:37:01;11.32;;;9.73;;
3841;SDS011;1936;47.074;15.336;2023-02-28T10:39:33;15.32;;;9.80;;
3841;SDS011;1936;47.074;15.336;2023-02-28T10:41:42;11.05;;;8.13;;
3841;SDS011;1936;47.074;15.336;2023-02-28T10:43:47;8.98;;;7.80;;
3841;SDS011;1936;47.074;15.336;2023-02-28T10:45:53;10.45;;;9.35;;
3841;SDS011;1936;47.074;15.336;2023-02-28T10:48:02;13.88;;;10.77;;
3841;SDS011;1936;47.074;15.336;2023-02-28T10:50:21;10.57;;;8.70;;
3841;SDS011;1936;47.074;15.336;2023-02-28T10:52:33;10.38;;;9.23;;
3841;SDS011;1936;47.074;15.336;2023-02-28T10:54:40;11.10;;;9.32;;
3841;SDS011;1936;47.074;15.336;2023-02-28T10:56:44;11.80;;;9.85;;
3841;SDS011;1936;47.074;15.336;2023-02-28T10:58:51;12.32;;;9.10;;
3841;SDS011;1936;47.074;15.336;2023-02-28T11:00:55;24.38;;;10.00;;
3841;SDS011;1936;47.074;15.336;2023-02-28T11:02:59;18.02;;;10.88;;
3841;SDS011;1936;47.074;15.336;2023-02-28T11:05:14;11.60;;;8.82;;
3841;SDS011;1936;47.074;15.336;2023-02-28T11:07:29;11.05;;;9.90;;
3841;SDS011;1936;47.074;15.336;2023-02-28T11:09:46;16.70;;;10.75;;
3841;SDS011;1936;47.074;15.336;2023-02-28T11:11:52;11.70;;;9.57;;
3841;SDS011;1936;47.074;15.336;2023-02-28T11:13:58;13.48;;;10.20;;
3841;SDS011;1936;47.074;15.336;2023-02-28T11:16:09;11.35;;;10.20;;
3841;SDS011;1936;47.074;15.336;2023-02-28T11:18:21;12.75;;;10.10;;
3841;SDS011;1936;47.074;15.336;2023-02-28T11:20:30;14.00;;;10.43;;
3841;SDS011;1936;47.074;15.336;2023-02-28T11:22:36;11.50;;;9.95;;
3841;SDS011;1936;47.074;15.336;2023-02-28T11:24:42;14.32;;;9.98;;
3841;SDS011;1936;47.074;15.336;2023-02-28T11:26:48;14.60;;;11.18;;
3841;SDS011;1936;47.074;15.336;2023-02-28T11:28:51;13.18;;;10.48;;
3841;SDS011;1936;47.074;15.336;2023-02-28T11:31:15;13.57;;;10.20;;
3841;SDS011;1936;47.074;15.336;2023-02-28T11:33:26;11.38;;;10.15;;
3841;SDS011;1936;47.074;15.336;2023-02-28T11:35:32;12.23;;;10.93;;
3841;SDS011;1936;47.074;15.336;2023-02-28T11:37:39;13.63;;;9.35;;
3841;SDS011;1936;47.074;15.336;2023-02-28T11:39:43;11.82;;;10.50;;
3841;SDS011;1936;47.074;15.336;2023-02-28T11:41:54;12.00;;;9.53;;
3841;SDS011;1936;47.074;15.336;2023-02-28T11:44:20;12.20;;;10.10;;
3841;SDS011;1936;47.074;15.336;2023-02-28T11:46:35;14.23;;;10.00;;
3841;SDS011;1936;47.074;15.336;2023-02-28T11:48:46;13.95;;;10.50;;
3841;SDS011;1936;47.074;15.336;2023-02-28T11:51:00;12.33;;;10.30;;
3841;SDS011;1936;47.074;15.336;2023-02-28T11:53:17;11.80;;;10.20;;
3841;SDS011;1936;47.074;15.336;2023-02-28T11:55:30;13.40;;;10.40;;
3841;SDS011;1936;47.074;15.336;2023-02-28T11:57:47;12.13;;;10.93;;
3841;SDS011;1936;47.074;15.336;2023-02-28T12:00:13;14.45;;;11.27;;
3841;SDS011;1936;47.074;15.336;2023-02-28T12:02:28;20.75;;;11.25;;
3841;SDS011;1936;47.074;15.336;2023-02-28T12:04:41;14.47;;;9.80;;
3841;SDS011;1936;47.074;15.336;2023-02-28T12:06:57;13.00;;;11.32;;
3841;SDS011;1936;47.074;15.336;2023-02-28T12:09:11;13.77;;;9.63;;
3841;SDS011;1936;47.074;15.336;2023-02-28T12:11:30;17.27;;;11.73;;
3841;SDS011;1936;47.074;15.336;2023-02-28T12:13:45;11.38;;;10.15;;
3841;SDS011;1936;47.074;15.336;2023-02-28T12:16:08;11.40;;;10.13;;
3841;SDS011;1936;47.074;15.336;2023-02-28T12:18:26;15.07;;;11.15;;
3841;SDS011;1936;47.074;15.336;2023-02-28T12:20:44;13.05;;;10.70;;
3841;SDS011;1936;47.074;15.336;2023-02-28T12:22:54;15.77;;;11.43;;
3841;SDS011;1936;47.074;15.336;2023-02-28T12:27:54;13.88;;;12.45;;
3841;SDS011;1936;47.074;15.336;2023-02-28T12:30:37;15.10;;;11.70;;
3841;SDS011;1936;47.074;15.336;2023-02-28T12:32:38;14.95;;;10.98;;
3841;SDS011;1936;47.074;15.336;2023-02-28T12:34:44;19.95;;;14.07;;
3841;SDS011;1936;47.074;15.336;2023-02-28T12:36:50;13.73;;;12.02;;
3841;SDS011;1936;47.074;15.336;2023-02-28T12:38:58;15.35;;;12.75;;
3841;SDS011;1936;47.074;15.336;2023-02-28T12:41:08;16.00;;;13.13;;
3841;SDS011;1936;47.074;15.336;2023-02-28T12:43:16;14.27;;;11.65;;
3841;SDS011;1936;47.074;15.336;2023-02-28T12:45:22;15.75;;;12.80;;
3841;SDS011;1936;47.074;15.336;2023-02-28T12:47:29;18.58;;;13.32;;
3841;SDS011;1936;47.074;15.336;2023-02-28T12:49:33;17.30;;;12.73;;
3841;SDS011;1936;47.074;15.336;2023-02-28T12:51:39;15.60;;;12.68;;
3841;SDS011;1936;47.074;15.336;2023-02-28T12:53:49;13.60;;;11.15;;
3841;SDS011;1936;47.074;15.336;2023-02-28T12:56:03;13.73;;;11.02;;
3841;SDS011;1936;47.074;15.336;2023-02-28T12:58:18;16.88;;;11.80;;
3841;SDS011;1936;47.074;15.336;2023-02-28T13:00:25;14.02;;;10.45;;